createdAt,value
2018-07-25T00:00:51.520Z,97639.00
2018-07-25T00:03:23.165Z,97639.00
2018-07-25T00:05:54.918Z,97641.00
2018-07-25T00:08:26.771Z,97638.00
2018-07-25T00:10:58.457Z,97637.00
2018-07-25T00:13:30.213Z,97636.00
2018-07-25T00:16:01.855Z,97637.00
2018-07-25T00:18:33.732Z,97634.00
2018-07-25T00:21:05.594Z,97633.00
2018-07-25T00:23:37.320Z,97632.00
2018-07-25T00:26:09.469Z,97626.00
2018-07-25T00:28:41.149Z,97628.00
2018-07-25T00:31:13.005Z,97631.00
2018-07-25T00:33:44.745Z,97632.00
2018-07-25T00:36:16.429Z,97634.00
2018-07-25T00:38:48.121Z,97630.00
2018-07-25T00:41:19.957Z,97629.00
2018-07-25T00:43:51.696Z,97629.00
2018-07-25T00:46:23.361Z,97629.00
2018-07-25T00:48:55.304Z,97630.00
2018-07-25T00:51:27.067Z,97632.00
2018-07-25T00:53:58.830Z,97629.00
2018-07-25T00:56:30.505Z,97632.00
2018-07-25T00:59:02.161Z,97632.00
2018-07-25T01:01:33.940Z,97633.00
2018-07-25T01:04:05.721Z,97634.00
2018-07-25T01:06:37.429Z,97632.00
2018-07-25T01:09:11.546Z,97631.00
2018-07-25T01:11:43.325Z,97631.00
2018-07-25T01:14:15.192Z,97634.00
2018-07-25T01:16:46.915Z,97630.00
2018-07-25T01:19:18.581Z,97632.00
2018-07-25T01:21:50.521Z,97634.00
2018-07-25T01:24:22.188Z,97634.00
2018-07-25T01:26:53.861Z,97631.00
2018-07-25T01:29:25.725Z,97632.00
2018-07-25T01:31:57.503Z,97630.00
2018-07-25T01:34:29.246Z,97640.00
2018-07-25T01:37:00.970Z,97641.00
2018-07-25T01:39:32.645Z,97642.00
2018-07-25T01:42:04.502Z,97644.00
2018-07-25T01:44:36.281Z,97642.00
2018-07-25T01:47:07.878Z,97645.00
2018-07-25T01:49:39.817Z,97648.00
2018-07-25T01:52:11.474Z,97645.00
2018-07-25T01:54:43.420Z,97649.00
2018-07-25T01:57:15.348Z,97647.00
2018-07-25T01:59:47.110Z,97646.00
2018-07-25T02:02:18.793Z,97651.00
2018-07-25T02:04:50.420Z,97656.00
2018-07-25T02:07:22.198Z,97654.00
2018-07-25T02:09:54.203Z,97651.00
2018-07-25T02:12:25.823Z,97651.00
2018-07-25T02:14:57.477Z,97648.00
2018-07-25T02:17:29.316Z,97647.00
2018-07-25T02:20:00.995Z,97650.00
2018-07-25T02:22:32.872Z,97652.00
2018-07-25T02:25:04.730Z,97661.00
2018-07-25T02:27:36.373Z,97663.00
2018-07-25T02:30:08.345Z,97672.00
2018-07-25T02:32:40.173Z,97673.00
2018-07-25T02:35:11.845Z,97671.00
2018-07-25T02:37:43.521Z,97674.00
2018-07-25T02:40:15.362Z,97678.00
2018-07-25T02:42:47.024Z,97679.00
2018-07-25T02:45:18.777Z,97682.00
2018-07-25T02:47:50.577Z,97682.00
2018-07-25T02:50:22.418Z,97679.00
2018-07-25T02:52:54.142Z,97682.00
2018-07-25T02:55:25.809Z,97687.00
2018-07-25T02:57:57.590Z,97682.00
2018-07-25T03:00:29.538Z,97680.00
2018-07-25T03:03:01.724Z,97687.00
2018-07-25T03:05:33.519Z,97684.00
2018-07-25T03:08:05.432Z,97688.00
2018-07-25T03:10:37.173Z,97687.00
2018-07-25T03:13:08.968Z,97696.00
2018-07-25T03:15:40.609Z,97691.00
2018-07-25T03:18:12.380Z,97697.00
2018-07-25T03:20:44.262Z,97700.00
2018-07-25T03:23:15.893Z,97703.00
2018-07-25T03:25:47.630Z,97704.00
2018-07-25T03:28:19.436Z,97706.00
2018-07-25T03:30:51.190Z,97706.00
2018-07-25T03:33:23.529Z,97701.00
2018-07-25T03:35:56.409Z,97709.00
2018-07-25T03:38:28.933Z,97710.00
2018-07-25T03:41:00.678Z,97716.00
2018-07-25T03:43:32.446Z,97713.00
2018-07-25T03:46:04.253Z,97713.00
2018-07-25T03:48:36.035Z,97719.00
2018-07-25T03:51:07.878Z,97711.00
2018-07-25T03:53:39.502Z,97717.00
2018-07-25T03:56:11.416Z,97721.00
2018-07-25T03:58:43.407Z,97728.00
2018-07-25T04:01:15.169Z,97725.00
2018-07-25T04:03:46.807Z,97731.00
2018-07-25T04:06:18.549Z,97731.00
2018-07-25T04:08:50.317Z,97730.00
2018-07-25T04:11:22.051Z,97735.00
2018-07-25T04:13:53.632Z,97738.00
2018-07-25T04:16:25.360Z,97738.00
2018-07-25T04:18:57.040Z,97745.00
2018-07-25T04:21:28.893Z,97744.00
2018-07-25T04:24:00.793Z,97746.00
2018-07-25T04:26:32.502Z,97747.00
2018-07-25T04:29:04.253Z,97741.00
2018-07-25T04:31:36.154Z,97740.00
2018-07-25T04:34:08.033Z,97740.00
2018-07-25T04:36:39.791Z,97741.00
2018-07-25T04:39:12.866Z,97743.00
2018-07-25T04:41:44.518Z,97747.00
2018-07-25T04:44:16.281Z,97753.00
2018-07-25T04:46:48.065Z,97747.00
2018-07-25T04:49:19.641Z,97753.00
2018-07-25T04:51:51.429Z,97755.00
2018-07-25T04:54:23.182Z,97759.00
2018-07-25T04:56:54.887Z,97761.00
2018-07-25T04:59:26.645Z,97760.00
2018-07-25T05:01:58.268Z,97764.00
2018-07-25T05:04:30.105Z,97762.00
2018-07-25T05:07:02.314Z,97761.00
2018-07-25T05:09:34.093Z,97763.00
2018-07-25T05:12:05.932Z,97766.00
2018-07-25T05:14:37.757Z,97764.00
2018-07-25T05:17:09.437Z,97765.00
2018-07-25T05:19:41.105Z,97773.00
2018-07-25T05:22:12.987Z,97769.00
2018-07-25T05:24:44.597Z,97770.00
2018-07-25T05:27:16.352Z,97765.00
2018-07-25T05:29:48.114Z,97768.00
2018-07-25T05:32:20.031Z,97771.00
2018-07-25T05:34:51.662Z,97769.00
2018-07-25T05:37:23.542Z,97768.00
2018-07-25T05:39:55.158Z,97768.00
2018-07-25T05:42:27.075Z,97766.00
2018-07-25T05:44:58.867Z,97767.00
2018-07-25T05:47:30.732Z,97766.00
2018-07-25T05:50:03.000Z,97763.00
2018-07-25T05:52:34.817Z,97763.00
2018-07-25T05:55:06.750Z,97762.00
2018-07-25T05:57:38.684Z,97766.00
2018-07-25T06:00:10.658Z,97761.00
2018-07-25T06:02:42.465Z,97765.00
2018-07-25T06:05:15.108Z,97767.00
2018-07-25T06:07:46.780Z,97766.00
2018-07-25T06:10:18.613Z,97763.00
2018-07-25T06:12:50.387Z,97758.00
2018-07-25T06:15:22.257Z,97761.00
2018-07-25T06:17:54.029Z,97756.00
2018-07-25T06:20:25.950Z,97761.00
2018-07-25T06:22:57.640Z,97752.00
2018-07-25T06:25:29.358Z,97759.00
2018-07-25T06:28:01.162Z,97753.00
2018-07-25T06:30:32.914Z,97762.00
2018-07-25T06:33:04.849Z,97763.00
2018-07-25T06:35:36.636Z,97763.00
2018-07-25T06:38:08.417Z,97762.00
2018-07-25T06:40:40.257Z,97762.00
2018-07-25T06:43:12.459Z,97767.00
2018-07-25T06:45:44.257Z,97770.00
2018-07-25T06:48:15.941Z,97772.00
2018-07-25T06:50:47.887Z,97771.00
2018-07-25T06:53:19.674Z,97768.00
2018-07-25T06:55:51.497Z,97771.00
2018-07-25T06:58:23.282Z,97771.00
2018-07-25T07:00:55.117Z,97774.00
2018-07-25T07:03:26.913Z,97777.00
2018-07-25T07:05:58.788Z,97785.00
2018-07-25T07:08:30.417Z,97780.00
2018-07-25T07:11:02.158Z,97779.00
2018-07-25T07:13:33.846Z,97778.00
2018-07-25T07:16:05.721Z,97777.00
2018-07-25T07:18:37.520Z,97776.00
2018-07-25T07:21:09.473Z,97778.00
2018-07-25T07:23:41.213Z,97778.00
2018-07-25T07:26:12.905Z,97779.00
2018-07-25T07:28:44.715Z,97776.00
2018-07-25T07:31:16.579Z,97775.00
2018-07-25T07:33:48.197Z,97781.00
2018-07-25T07:36:20.259Z,97782.00
2018-07-25T07:38:52.069Z,97780.00
2018-07-25T07:41:23.777Z,97784.00
2018-07-25T07:43:55.683Z,97785.00
2018-07-25T07:46:27.248Z,97786.00
2018-07-25T07:48:58.942Z,97782.00
2018-07-25T07:51:30.631Z,97780.00
2018-07-25T07:54:02.741Z,97776.00
2018-07-25T07:56:34.556Z,97777.00
2018-07-25T07:59:06.498Z,97771.00
2018-07-25T08:01:38.409Z,97769.00
2018-07-25T08:04:10.169Z,97772.00
2018-07-25T08:06:41.842Z,97774.00
2018-07-25T08:09:14.160Z,97775.00
2018-07-25T08:11:46.794Z,97770.00
2018-07-25T08:14:18.498Z,97767.00
2018-07-25T08:16:50.296Z,97770.00
2018-07-25T08:19:22.051Z,97771.00
2018-07-25T08:21:53.688Z,97767.00
2018-07-25T08:24:25.529Z,97771.00
2018-07-25T08:26:57.206Z,97772.00
2018-07-25T08:29:29.061Z,97770.00
2018-07-25T08:32:00.793Z,97770.00
2018-07-25T08:34:32.526Z,97769.00
2018-07-25T08:37:04.417Z,97762.00
2018-07-25T08:39:36.274Z,97762.00
2018-07-25T08:42:08.289Z,97762.00
2018-07-25T08:44:40.027Z,97763.00
2018-07-25T08:47:11.807Z,97761.00
2018-07-25T08:49:43.571Z,97761.00
2018-07-25T08:52:15.302Z,97755.00
2018-07-25T08:54:47.031Z,97754.00
2018-07-25T08:57:18.944Z,97762.00
2018-07-25T08:59:50.583Z,97760.00
2018-07-25T09:02:22.463Z,97764.00
2018-07-25T09:04:53.657Z,97765.00
2018-07-25T09:07:25.383Z,97759.00
2018-07-25T09:09:57.085Z,97752.00
2018-07-25T09:12:28.861Z,97747.00
2018-07-25T09:15:00.586Z,97744.00
2018-07-25T09:17:32.230Z,97747.00
2018-07-25T09:20:04.057Z,97745.00
2018-07-25T09:22:36.020Z,97744.00
2018-07-25T09:25:07.877Z,97745.00
2018-07-25T09:27:39.713Z,97745.00
2018-07-25T09:30:11.457Z,97745.00
2018-07-25T09:32:43.129Z,97734.00
2018-07-25T09:35:14.794Z,97729.00
2018-07-25T09:37:47.029Z,97723.00
2018-07-25T09:40:18.910Z,97726.00
2018-07-25T09:42:50.808Z,97722.00
2018-07-25T09:45:22.750Z,97727.00
2018-07-25T09:47:54.601Z,97720.00
2018-07-25T09:50:26.447Z,97725.00
2018-07-25T09:52:58.287Z,97721.00
2018-07-25T09:55:30.004Z,97716.00
2018-07-25T09:58:01.848Z,97722.00
2018-07-25T10:00:38.459Z,97718.00
2018-07-25T10:03:10.205Z,97719.00
2018-07-25T10:05:42.141Z,97719.00
2018-07-25T10:08:13.981Z,97714.00
2018-07-25T10:10:46.144Z,97704.00
2018-07-25T10:13:18.059Z,97708.00
2018-07-25T10:15:50.028Z,97706.00
2018-07-25T10:18:21.720Z,97703.00
2018-07-25T10:20:53.566Z,97697.00
2018-07-25T10:23:25.303Z,97697.00
2018-07-25T10:25:57.031Z,97696.00
2018-07-25T10:28:28.688Z,97692.00
2018-07-25T10:31:00.539Z,97683.00
2018-07-25T10:33:32.312Z,97687.00
2018-07-25T10:36:03.489Z,97684.00
2018-07-25T10:38:35.211Z,97686.00
2018-07-25T10:41:07.045Z,97685.00
2018-07-25T10:43:38.836Z,97687.00
2018-07-25T10:46:10.490Z,97690.00
2018-07-25T10:48:42.368Z,97682.00
2018-07-25T10:51:14.002Z,97683.00
2018-07-25T10:53:45.829Z,97683.00
2018-07-25T10:56:17.596Z,97685.00
2018-07-25T10:58:49.287Z,97676.00
2018-07-25T11:01:21.035Z,97683.00
2018-07-25T11:03:52.846Z,97667.00
2018-07-25T11:06:24.632Z,97672.00
2018-07-25T11:08:56.317Z,97660.00
2018-07-25T11:11:30.293Z,97652.00
2018-07-25T11:14:02.174Z,97659.00
2018-07-25T11:16:33.949Z,97663.00
2018-07-25T11:19:05.570Z,97653.00
2018-07-25T11:21:37.558Z,97655.00
2018-07-25T11:24:09.458Z,97655.00
2018-07-25T11:26:41.067Z,97660.00
2018-07-25T11:29:12.952Z,97658.00
2018-07-25T11:31:44.778Z,97652.00
2018-07-25T11:34:16.463Z,97648.00
2018-07-25T11:36:48.131Z,97654.00
2018-07-25T11:39:19.853Z,97654.00
2018-07-25T11:41:51.628Z,97651.00
2018-07-25T11:44:23.477Z,97647.00
2018-07-25T11:46:55.345Z,97646.00
2018-07-25T11:49:27.115Z,97644.00
2018-07-25T11:51:58.988Z,97641.00
2018-07-25T11:54:30.717Z,97640.00
2018-07-25T11:57:02.580Z,97637.00
2018-07-25T11:59:34.389Z,97634.00
2018-07-25T12:02:06.231Z,97631.00
2018-07-25T12:04:38.064Z,97628.00
2018-07-25T12:07:10.076Z,97630.00
2018-07-25T12:09:41.801Z,97632.00
2018-07-25T12:12:13.582Z,97630.00
2018-07-25T12:14:45.397Z,97626.00
2018-07-25T12:17:17.072Z,97620.00
2018-07-25T12:19:48.750Z,97620.00
2018-07-25T12:22:20.649Z,97605.00
2018-07-25T12:24:52.362Z,97604.00
2018-07-25T12:27:24.218Z,97602.00
2018-07-25T12:29:56.060Z,97602.00
2018-07-25T12:32:27.738Z,97602.00
2018-07-25T12:34:59.473Z,97595.00
2018-07-25T12:37:31.334Z,97594.00
2018-07-25T12:40:03.013Z,97592.00
2018-07-25T12:42:34.748Z,97594.00
2018-07-25T12:45:06.825Z,97589.00
2018-07-25T12:47:38.677Z,97589.00
2018-07-25T12:50:10.591Z,97584.00
2018-07-25T12:52:42.326Z,97576.00
2018-07-25T12:55:14.158Z,97575.00
2018-07-25T12:57:46.278Z,97574.00
2018-07-25T13:00:18.084Z,97573.00
2018-07-25T13:02:49.850Z,97565.00
2018-07-25T13:05:21.658Z,97558.00
2018-07-25T13:07:53.391Z,97560.00
2018-07-25T13:10:25.194Z,97558.00
2018-07-25T13:12:57.085Z,97548.00
2018-07-25T13:15:28.859Z,97554.00
2018-07-25T13:18:00.634Z,97552.00
2018-07-25T13:20:32.369Z,97558.00
2018-07-25T13:23:04.064Z,97556.00
2018-07-25T13:25:35.914Z,97552.00
2018-07-25T13:28:07.957Z,97550.00
2018-07-25T13:30:39.814Z,97546.00
2018-07-25T13:33:11.481Z,97535.00
2018-07-25T13:35:43.240Z,97544.00
2018-07-25T13:38:15.090Z,97547.00
2018-07-25T13:40:46.748Z,97539.00
2018-07-25T13:43:18.424Z,97539.00
2018-07-25T13:45:50.170Z,97537.00
2018-07-25T13:48:22.069Z,97531.00
2018-07-25T13:50:53.798Z,97526.00
2018-07-25T13:53:25.543Z,97528.00
2018-07-25T13:55:57.345Z,97527.00
2018-07-25T13:58:29.198Z,97522.00
2018-07-25T14:01:01.018Z,97525.00
2018-07-25T14:03:33.089Z,97523.00
2018-07-25T14:06:04.798Z,97521.00
2018-07-25T14:08:36.718Z,97520.00
2018-07-25T14:11:08.593Z,97514.00
2018-07-25T14:13:40.466Z,97510.00
2018-07-25T14:16:12.510Z,97515.00
2018-07-25T14:18:44.356Z,97511.00
2018-07-25T14:21:16.265Z,97509.00
2018-07-25T14:23:48.020Z,97511.00
2018-07-25T14:26:19.934Z,97509.00
2018-07-25T14:28:51.657Z,97510.00
2018-07-25T14:31:23.457Z,97507.00
2018-07-25T14:33:55.363Z,97500.00
2018-07-25T14:36:27.010Z,97499.00
2018-07-25T14:38:58.758Z,97497.00
2018-07-25T14:41:30.601Z,97500.00
2018-07-25T14:44:02.265Z,97501.00
2018-07-25T14:46:33.937Z,97505.00
2018-07-25T14:49:05.959Z,97498.00
2018-07-25T14:51:37.953Z,97499.00
2018-07-25T14:54:09.509Z,97494.00
2018-07-25T14:56:41.355Z,97495.00
2018-07-25T14:59:13.250Z,97494.00
2018-07-25T15:01:44.996Z,97496.00
2018-07-25T15:04:16.737Z,97491.00
2018-07-25T15:06:48.527Z,97495.00
2018-07-25T15:09:20.178Z,97498.00
2018-07-25T15:11:51.956Z,97497.00
2018-07-25T15:14:23.677Z,97493.00
2018-07-25T15:16:55.558Z,97499.00
2018-07-25T15:19:27.492Z,97498.00
2018-07-25T15:21:59.502Z,97496.00
2018-07-25T15:24:31.229Z,97493.00
2018-07-25T15:27:03.083Z,97495.00
2018-07-25T15:29:35.083Z,97498.00
2018-07-25T15:32:06.716Z,97497.00
2018-07-25T15:34:38.477Z,97497.00
2018-07-25T15:37:10.212Z,97496.00
2018-07-25T15:39:41.894Z,97501.00
2018-07-25T15:42:13.649Z,97495.00
2018-07-25T15:44:45.593Z,97497.00
2018-07-25T15:47:17.455Z,97490.00
2018-07-25T15:49:49.238Z,97490.00
2018-07-25T15:52:20.941Z,97488.00
2018-07-25T15:54:52.721Z,97488.00
2018-07-25T15:57:24.740Z,97485.00
2018-07-25T15:59:56.569Z,97484.00
2018-07-25T16:02:28.567Z,97476.00
2018-07-25T16:05:00.410Z,97477.00
2018-07-25T16:07:32.142Z,97481.00
2018-07-25T16:10:03.926Z,97488.00
2018-07-25T16:12:35.572Z,97485.00
2018-07-25T16:15:07.619Z,97484.00
2018-07-25T16:17:39.475Z,97479.00
2018-07-25T16:20:11.261Z,97480.00
2018-07-25T16:22:43.005Z,97475.00
2018-07-25T16:25:14.908Z,97473.00
2018-07-25T16:27:46.737Z,97472.00
2018-07-25T16:30:18.534Z,97469.00
2018-07-25T16:32:50.440Z,97466.00
2018-07-25T16:35:22.126Z,97467.00
2018-07-25T16:37:54.126Z,97471.00
2018-07-25T16:40:26.089Z,97470.00
2018-07-25T16:42:57.980Z,97469.00
2018-07-25T16:45:29.790Z,97472.00
2018-07-25T16:48:01.660Z,97469.00
2018-07-25T16:50:33.389Z,97473.00
2018-07-25T16:53:05.249Z,97475.00
2018-07-25T16:55:37.093Z,97477.00
2018-07-25T16:58:09.105Z,97475.00
2018-07-25T17:00:41.169Z,97483.00
2018-07-25T17:03:12.908Z,97483.00
2018-07-25T17:05:44.658Z,97483.00
2018-07-25T17:08:16.325Z,97478.00
2018-07-25T17:10:48.187Z,97483.00
2018-07-25T17:13:20.061Z,97476.00
2018-07-25T17:15:51.907Z,97476.00
2018-07-25T17:18:23.637Z,97482.00
2018-07-25T17:20:55.675Z,97487.00
2018-07-25T17:23:27.566Z,97487.00
2018-07-25T17:25:59.374Z,97488.00
2018-07-25T17:28:31.206Z,97487.00
2018-07-25T17:31:03.145Z,97489.00
2018-07-25T17:33:34.820Z,97492.00
2018-07-25T17:36:06.693Z,97495.00
2018-07-25T17:38:38.661Z,97494.00
2018-07-25T17:41:10.384Z,97499.00
2018-07-25T17:43:42.156Z,97504.00
2018-07-25T17:46:13.933Z,97505.00
2018-07-25T17:48:45.791Z,97506.00
2018-07-25T17:51:17.787Z,97507.00
2018-07-25T17:53:49.425Z,97509.00
2018-07-25T17:56:21.147Z,97505.00
2018-07-25T17:58:52.830Z,97508.00
2018-07-25T18:01:24.693Z,97506.00
2018-07-25T18:03:56.432Z,97514.00
2018-07-25T18:06:28.223Z,97519.00
2018-07-25T18:09:00.144Z,97518.00
2018-07-25T18:11:32.008Z,97516.00
2018-07-25T18:14:08.836Z,97519.00
2018-07-25T18:16:41.017Z,97521.00
2018-07-25T18:19:13.292Z,97525.00
2018-07-25T18:21:45.189Z,97532.00
2018-07-25T18:24:16.940Z,97532.00
2018-07-25T18:26:48.631Z,97537.00
2018-07-25T18:29:20.528Z,97540.00
2018-07-25T18:31:52.375Z,97541.00
2018-07-25T18:34:24.210Z,97539.00
2018-07-25T18:36:56.041Z,97544.00
2018-07-25T18:39:27.831Z,97543.00
2018-07-25T18:41:59.670Z,97544.00
2018-07-25T18:44:31.489Z,97542.00
2018-07-25T18:47:03.235Z,97548.00
2018-07-25T18:49:35.304Z,97548.00
2018-07-25T18:52:06.526Z,97554.00
2018-07-25T18:54:38.265Z,97560.00
2018-07-25T18:57:10.049Z,97562.00
2018-07-25T18:59:41.701Z,97565.00
2018-07-25T19:02:13.726Z,97572.00
2018-07-25T19:04:45.531Z,97574.00
2018-07-25T19:07:17.369Z,97574.00
2018-07-25T19:09:49.116Z,97583.00
2018-07-25T19:12:20.795Z,97586.00
2018-07-25T19:15:55.457Z,97589.00
2018-07-25T19:18:27.270Z,97595.00
2018-07-25T19:20:59.024Z,97594.00
2018-07-25T19:23:30.813Z,97607.00
2018-07-25T19:26:02.498Z,97612.00
2018-07-25T19:28:34.317Z,97616.00
2018-07-25T19:31:06.037Z,97616.00
2018-07-25T19:33:37.829Z,97624.00
2018-07-25T19:36:10.207Z,97624.00
2018-07-25T19:38:42.108Z,97627.00
2018-07-25T19:41:13.846Z,97628.00
2018-07-25T19:43:45.714Z,97635.00
2018-07-25T19:46:17.545Z,97633.00
2018-07-25T19:48:49.217Z,97638.00
2018-07-25T19:51:21.108Z,97640.00
2018-07-25T19:53:52.732Z,97640.00
2018-07-25T19:56:24.570Z,97636.00
2018-07-25T19:58:56.583Z,97633.00
2018-07-25T20:01:28.353Z,97635.00
2018-07-25T20:03:59.979Z,97638.00
2018-07-25T20:06:31.821Z,97642.00
2018-07-25T20:09:03.724Z,97642.00
2018-07-25T20:11:35.465Z,97641.00
2018-07-25T20:14:12.327Z,97641.00
2018-07-25T20:16:44.136Z,97642.00
2018-07-25T20:19:15.869Z,97642.00
2018-07-25T20:21:47.499Z,97649.00
2018-07-25T20:24:19.438Z,97646.00
2018-07-25T20:26:51.151Z,97653.00
2018-07-25T20:29:22.897Z,97649.00
2018-07-25T20:31:54.614Z,97651.00
2018-07-25T20:34:26.289Z,97651.00
2018-07-25T20:36:58.067Z,97655.00
2018-07-25T20:39:29.796Z,97658.00
2018-07-25T20:42:01.711Z,97658.00
2018-07-25T20:44:33.532Z,97663.00
2018-07-25T20:47:05.384Z,97662.00
2018-07-25T20:49:37.150Z,97662.00
2018-07-25T20:52:08.965Z,97668.00
2018-07-25T20:54:40.778Z,97667.00
2018-07-25T20:57:12.432Z,97676.00
2018-07-25T20:59:44.202Z,97679.00
2018-07-25T21:02:16.180Z,97682.00
2018-07-25T21:04:47.891Z,97686.00
2018-07-25T21:07:19.682Z,97683.00
2018-07-25T21:09:51.448Z,97687.00
2018-07-25T21:12:23.390Z,97685.00
2018-07-25T21:14:55.266Z,97692.00
2018-07-25T21:17:27.274Z,97698.00
2018-07-25T21:19:58.990Z,97701.00
2018-07-25T21:22:30.721Z,97701.00
2018-07-25T21:25:02.495Z,97706.00
2018-07-25T21:27:34.279Z,97710.00
2018-07-25T21:30:06.556Z,97714.00
2018-07-25T21:32:38.437Z,97715.00
2018-07-25T21:35:10.447Z,97716.00
2018-07-25T21:37:42.118Z,97720.00
2018-07-25T21:40:13.781Z,97719.00
2018-07-25T21:42:45.562Z,97721.00
2018-07-25T21:45:17.321Z,97720.00
2018-07-25T21:47:48.957Z,97723.00
2018-07-25T21:50:20.822Z,97723.00
2018-07-25T21:52:52.457Z,97718.00
2018-07-25T21:55:24.294Z,97729.00
2018-07-25T21:57:55.892Z,97727.00
2018-07-25T22:00:27.771Z,97729.00
2018-07-25T22:02:59.726Z,97723.00
2018-07-25T22:05:31.451Z,97720.00
2018-07-25T22:08:03.074Z,97722.00
2018-07-25T22:10:34.886Z,97724.00
2018-07-25T22:13:06.571Z,97728.00
2018-07-25T22:15:38.191Z,97727.00
2018-07-25T22:18:09.814Z,97730.00
2018-07-25T22:20:41.739Z,97732.00
2018-07-25T22:23:13.369Z,97730.00
2018-07-25T22:25:45.002Z,97726.00
2018-07-25T22:28:16.780Z,97725.00
2018-07-25T22:30:48.545Z,97726.00
2018-07-25T22:33:20.275Z,97727.00
2018-07-25T22:35:51.965Z,97734.00
2018-07-25T22:38:23.617Z,97730.00
2018-07-25T22:40:55.459Z,97734.00
2018-07-25T22:43:27.366Z,97735.00
2018-07-25T22:45:59.012Z,97738.00
2018-07-25T22:48:30.937Z,97744.00
2018-07-25T22:51:02.835Z,97742.00
2018-07-25T22:53:34.491Z,97742.00
2018-07-25T22:56:06.414Z,97739.00
2018-07-25T22:58:38.189Z,97740.00
2018-07-25T23:01:10.061Z,97743.00
2018-07-25T23:03:41.898Z,97745.00
2018-07-25T23:06:13.760Z,97743.00
2018-07-25T23:08:45.570Z,97744.00
2018-07-25T23:11:17.305Z,97748.00
2018-07-25T23:13:49.087Z,97751.00
2018-07-25T23:16:20.818Z,97751.00
2018-07-25T23:18:52.481Z,97755.00
2018-07-25T23:21:24.422Z,97758.00
2018-07-25T23:23:56.157Z,97759.00
2018-07-25T23:26:28.093Z,97757.00
2018-07-25T23:28:59.902Z,97763.00
2018-07-25T23:31:31.680Z,97764.00
2018-07-25T23:34:03.351Z,97764.00
2018-07-25T23:36:35.018Z,97761.00
2018-07-25T23:39:08.826Z,97762.00
2018-07-25T23:41:40.732Z,97762.00
2018-07-25T23:44:12.508Z,97762.00
2018-07-25T23:46:44.258Z,97763.00
2018-07-25T23:49:15.948Z,97760.00
2018-07-25T23:51:47.722Z,97762.00
2018-07-25T23:54:19.426Z,97764.00
2018-07-25T23:56:51.444Z,97765.00
2018-07-25T23:59:23.178Z,97764.00
